Hovedside
METAR-TAF:

METAR-TAF

Lufthavner :

Skövde, Sverige

breddegrad: 58-27N, lengdegrad: 013-58E, høyde over havet: 98 m

Gjeldene værobservasjon

Denne rapporten ble laget for 10 minutter siden, klokken 11:50 UTC
Vind 6 kt fra Vest, skiftende mellom Sørvest og Nord-nordvest
Temperatur 4°C
Luftfuktighet 52%
Trykk 1006 hPa
Sikt 10 km eller mer

METAR: ESGR 241150Z AUTO 27006KT 230V330 9999 NCD 04/M05 Q1006

Tid: 13:00 (12:00 UTC)


TAF: fraværende

Værobservasjoner og værvarsel for over 4000 flyplasser (METAR- og TAF-rapporter).

Tilgjengelige stasjoner er representert av de røde og gule prikkene på kartet.

Hold musepekeren over prikken for å se navnet på stasjonen.

Klikk så for å se værobservasjoner og -varsler.

For å forandre kartet kan du klikke på den grønne knappen med svart kryss for å zoome inn, på den grønne knappen med strek for å zoome ut, eller på de grønne pilene for å se tilstøtende kart.


METAR-TAF: